Time;durP1;ratioP1;P1;durP2;ratioP2;P2;SDS_P1;SDS_P2;PMS_P1;PMS_P2;Temp;Humidity;BMP_temperature;BMP_pressure;BME280_temperature;BME280_humidity;BME280_pressure;Samples;Min_cycle;Max_cycle;Signal;HPM_P1;HPM_P2
2021/03/18 00:01:19;;;;;;;13.93;7.78;;;;;;;2.12;71.52;99173.20;4341070;81;21182;-90
2021/03/18 00:07:20;;;;;;;17.05;8.20;;;;;;;2.15;71.56;99177.42;4352685;80;21301;-87
2021/03/18 00:13:26;;;;;;;14.45;7.97;;;;;;;2.16;71.54;99179.57;4348538;80;21682;-87
2021/03/18 00:19:30;;;;;;;16.10;8.55;;;;;;;2.13;71.57;99177.50;4353166;80;21183;-89
2021/03/18 00:25:33;;;;;;;19.50;9.28;;;;;;;2.11;71.52;99176.47;4356960;80;21510;-88
2021/03/18 00:31:35;;;;;;;16.07;8.33;;;;;;;2.03;71.57;99174.55;4356963;80;21179;-87
2021/03/18 00:37:40;;;;;;;14.55;7.58;;;;;;;2.02;71.38;99178.33;4357209;80;21644;-88
2021/03/18 00:43:43;;;;;;;13.05;7.55;;;;;;;2.06;71.81;99171.76;4349010;80;21334;-87
2021/03/18 00:49:45;;;;;;;20.15;8.13;;;;;;;2.03;71.92;99172.39;4343916;81;21676;-88
2021/03/18 00:55:48;;;;;;;15.63;8.85;;;;;;;1.94;72.15;99178.33;4345158;80;21179;-88
2021/03/18 01:01:51;;;;;;;22.95;8.60;;;;;;;1.91;71.76;99169.52;4352867;80;21236;-87
2021/03/18 01:07:52;;;;;;;14.80;8.28;;;;;;;1.74;72.01;99147.87;4376861;81;21162;-87
2021/03/18 01:13:59;;;;;;;16.48;8.85;;;;;;;1.84;72.22;99160.52;4378682;81;21173;-87
2021/03/18 01:20:01;;;;;;;14.75;8.20;;;;;;;1.81;72.25;99152.24;4368389;80;21197;-87
2021/03/18 01:26:05;;;;;;;18.42;8.88;;;;;;;1.79;72.50;99157.95;4347683;80;21214;-86
2021/03/18 01:32:07;;;;;;;19.15;9.43;;;;;;;1.75;72.43;99149.45;4350078;81;21670;-87
2021/03/18 01:38:09;;;;;;;16.30;8.68;;;;;;;1.75;72.43;99149.45;4344009;80;22046;-87
2021/03/18 01:44:12;;;;;;;15.63;8.48;;;;;;;1.77;72.82;99158.81;4352833;80;21816;-88
2021/03/18 01:50:16;;;;;;;15.93;8.55;;;;;;;1.70;72.59;99157.69;4348605;80;21734;-87
2021/03/18 01:56:19;;;;;;;15.05;9.13;;;;;;;1.61;72.68;99158.45;4341503;80;22260;-88
2021/03/18 02:02:20;;;;;;;16.95;7.80;;;;;;;1.52;72.73;99156.28;4354219;80;21181;-89
2021/03/18 02:08:23;;;;;;;16.20;8.28;;;;;;;1.52;72.73;99156.28;4291575;81;21226;-89
2021/03/18 02:14:24;;;;;;;14.80;7.78;;;;;;;1.54;72.96;99162.71;4355001;80;21672;-88
2021/03/18 02:20:51;;;;;;;18.95;8.75;;;;;;;1.48;73.15;99159.38;4277249;81;21734;-87
2021/03/18 02:27:33;;;;;;;17.02;8.10;;;;;;;1.37;73.26;99146.45;4333792;80;21216;-87
2021/03/18 02:34:12;;;;;;;15.83;8.73;;;;;;;1.44;73.32;99167.83;4296976;81;21944;-88
2021/03/18 02:40:19;;;;;;;18.57;8.93;;;;;;;1.51;73.80;99161.98;4299174;81;21201;-88
2021/03/18 02:46:23;;;;;;;18.15;10.30;;;;;;;1.51;73.80;99161.98;4294626;81;21789;-88
2021/03/18 02:52:29;;;;;;;18.00;10.30;;;;;;;1.47;73.75;99156.41;4293313;81;21210;-87
2021/03/18 02:58:35;;;;;;;21.23;10.73;;;;;;;1.31;73.78;99149.86;4303838;81;21514;-88
2021/03/18 03:04:41;;;;;;;19.32;10.78;;;;;;;1.37;74.24;99171.54;4296272;81;21666;-89
2021/03/18 03:10:44;;;;;;;19.37;11.22;;;;;;;1.36;74.40;99169.93;4295583;82;21724;-87
2021/03/18 03:16:47;;;;;;;23.22;13.40;;;;;;;1.35;74.56;99175.63;4299070;81;21738;-88
2021/03/18 03:22:49;;;;;;;20.70;12.13;;;;;;;1.30;74.36;99180.61;4303388;82;21509;-87
2021/03/18 03:28:52;;;;;;;35.52;17.05;;;;;;;1.21;74.72;99158.20;4298027;82;21658;-88
2021/03/18 03:34:54;;;;;;;43.73;17.23;;;;;;;1.32;74.82;99185.70;4298180;81;21188;-87
2021/03/18 03:40:56;;;;;;;22.42;14.45;;;;;;;1.24;75.06;99193.19;4299834;81;21342;-87
2021/03/18 03:46:57;;;;;;;27.82;14.23;;;;;;;1.17;75.67;99182.86;4297594;82;21201;-88
2021/03/18 03:53:38;;;;;;;24.85;14.58;;;;;;;1.17;76.09;99188.80;4295902;81;21215;-87
2021/03/18 03:59:42;;;;;;;28.70;15.08;;;;;;;1.17;76.09;99188.80;4296947;82;22200;-88
2021/03/18 04:05:47;;;;;;;33.80;17.02;;;;;;;1.26;76.26;99194.48;4299769;82;21657;-87
2021/03/18 04:11:52;;;;;;;25.00;16.17;;;;;;;1.15;75.86;99199.09;4303180;82;21181;-90
2021/03/18 04:17:55;;;;;;;52.58;21.68;;;;;;;0.97;76.41;99200.09;4296802;82;21193;-87
2021/03/18 04:24:02;;;;;;;37.13;20.23;;;;;;;0.77;77.22;99208.64;4299296;82;21173;-87
2021/03/18 04:30:09;;;;;;;32.20;18.52;;;;;;;0.77;77.22;99208.64;4301957;81;21185;-88
2021/03/18 04:36:11;;;;;;;32.75;18.15;;;;;;;0.77;77.65;99207.30;4231059;81;31276;-90
2021/03/18 04:42:14;;;;;;;41.30;20.92;;;;;;;0.76;77.47;99203.02;4101986;85;21217;-87
2021/03/18 04:48:17;;;;;;;29.20;17.48;;;;;;;0.73;77.68;99207.14;4097817;86;21281;-88
2021/03/18 04:54:19;;;;;;;24.52;14.03;;;;;;;0.72;77.80;99212.26;4101233;85;21755;-88
2021/03/18 05:00:24;;;;;;;22.55;12.73;;;;;;;0.65;78.12;99209.20;4099332;85;21233;-87
2021/03/18 05:06:27;;;;;;;23.03;12.87;;;;;;;0.61;80.13;99218.20;4099342;85;21274;-88
2021/03/18 05:12:29;;;;;;;20.87;12.10;;;;;;;0.49;79.47;99219.27;4096348;85;21202;-87
2021/03/18 05:18:33;;;;;;;18.52;12.30;;;;;;;0.45;79.40;99214.25;4097920;85;21237;-87
2021/03/18 05:24:40;;;;;;;45.98;17.48;;;;;;;0.47;79.25;99222.27;4093834;85;21499;-87
2021/03/18 05:30:43;;;;;;;39.95;17.00;;;;;;;0.47;79.32;99223.61;4134452;84;21919;-87
2021/03/18 05:36:45;;;;;;;26.10;14.17;;;;;;;0.46;79.97;99231.45;4119920;84;21195;-87
2021/03/18 05:42:49;;;;;;;33.02;16.65;;;;;;;0.38;80.20;99235.41;4101134;85;21159;-89
2021/03/18 05:48:53;;;;;;;76.90;23.93;;;;;;;0.38;79.78;99238.09;4095526;85;21240;-88
2021/03/18 05:54:56;;;;;;;61.13;22.80;;;;;;;0.42;79.82;99244.48;4105472;84;21276;-86
2021/03/18 06:00:58;;;;;;;30.13;17.47;;;;;;;0.48;79.53;99242.73;4153609;83;21698;-88
2021/03/18 06:07:01;;;;;;;69.67;22.77;;;;;;;0.53;79.52;99239.94;4131016;84;21664;-86
2021/03/18 06:13:03;;;;;;;42.97;18.57;;;;;;;0.54;79.37;99248.25;4111635;85;21637;-88
2021/03/18 06:19:07;;;;;;;37.30;20.87;;;;;;;0.61;79.27;99252.66;4108761;85;21225;-86
2021/03/18 06:25:32;;;;;;;30.12;16.93;;;;;;;0.61;79.36;99254.58;4115056;85;21676;-86
2021/03/18 06:31:34;;;;;;;28.55;14.50;;;;;;;0.67;79.55;99260.09;4113906;85;21347;-86
2021/03/18 06:44:24;;;;;;;25.00;14.03;;;;;;;0.76;79.20;99270.39;4306487;80;25746;-86
2021/03/18 06:50:36;;;;;;;29.37;14.78;;;;;;;0.82;78.90;99275.36;4251871;82;22415;-89
2021/03/18 06:56:38;;;;;;;24.18;12.05;;;;;;;1.01;78.81;99273.30;4247695;82;21237;-87
2021/03/18 07:02:41;;;;;;;29.87;15.45;;;;;;;1.24;78.30;99285.68;4253113;82;21645;-87
2021/03/18 07:08:43;;;;;;;21.52;11.80;;;;;;;1.41;78.08;99280.40;4245122;82;21228;-87
2021/03/18 07:14:49;;;;;;;17.27;9.40;;;;;;;1.60;76.88;99279.64;4254200;82;21177;-89
2021/03/18 07:21:08;;;;;;;16.62;8.88;;;;;;;1.56;76.70;99288.67;4251298;82;21201;-89
2021/03/18 07:27:16;;;;;;;15.53;8.23;;;;;;;1.59;77.43;99282.66;4257177;82;21237;-87
2021/03/18 07:33:19;;;;;;;18.87;9.65;;;;;;;1.76;76.96;99280.04;4257881;82;21177;-87
2021/03/18 07:39:21;;;;;;;14.83;7.62;;;;;;;1.72;76.42;99280.43;4252786;82;21673;-87
2021/03/18 07:45:26;;;;;;;13.55;7.40;;;;;;;2.23;76.39;99275.23;4264900;83;21218;-88
2021/03/18 07:51:30;;;;;;;16.45;7.80;;;;;;;3.00;75.59;99274.00;4259281;81;21221;-88
2021/03/18 07:57:44;;;;;;;14.07;6.60;;;;;;;3.41;74.31;99274.28;4260189;81;21691;-88
2021/03/18 08:03:53;;;;;;;25.02;7.75;;;;;;;3.99;72.74;99279.86;4270782;81;21219;-87
2021/03/18 08:09:54;;;;;;;8.75;5.90;;;;;;;3.69;72.72;99274.69;4257302;81;21184;-88
2021/03/18 08:15:56;;;;;;;23.52;8.75;;;;;;;3.53;72.95;99273.61;4264451;81;22222;-87
2021/03/18 08:21:58;;;;;;;10.75;5.60;;;;;;;3.21;70.88;99278.44;4265298;81;21233;-89
2021/03/18 08:27:59;;;;;;;10.23;4.45;;;;;;;2.91;70.46;99278.61;4259602;83;21627;-87
2021/03/18 08:34:02;;;;;;;10.70;4.55;;;;;;;2.82;70.03;99264.27;4251270;81;21205;-88
2021/03/18 08:40:09;;;;;;;8.15;3.58;;;;;;;3.54;69.50;99267.88;4253898;81;21674;-90
2021/03/18 08:46:33;;;;;;;4.92;2.95;;;;;;;4.17;68.83;99265.66;4235953;81;38197;-90
2021/03/18 08:52:44;;;;;;;7.70;3.40;;;;;;;5.08;67.57;99265.14;4040560;86;21237;-89
2021/03/18 08:58:50;;;;;;;4.62;2.40;;;;;;;6.12;67.56;99260.47;4052435;86;21390;-89
2021/03/18 09:04:52;;;;;;;3.00;2.00;;;;;;;6.76;65.53;99265.20;4053529;85;21245;-89
2021/03/18 09:10:55;;;;;;;8.93;3.75;;;;;;;7.32;62.63;99255.95;4054594;86;21217;-89
2021/03/18 09:17:12;;;;;;;5.05;2.30;;;;;;;8.21;62.11;99250.30;4054727;86;21755;-87
2021/03/18 09:23:17;;;;;;;4.80;2.80;;;;;;;8.27;61.78;99249.72;4052969;86;21254;-89
2021/03/18 09:29:27;;;;;;;5.92;2.72;;;;;;;8.18;61.93;99249.09;4049634;86;21253;-89
2021/03/18 09:35:29;;;;;;;6.08;2.40;;;;;;;6.93;60.35;99237.72;4056523;86;21229;-91
2021/03/18 09:41:39;;;;;;;2.95;1.40;;;;;;;7.43;56.24;99232.53;4050324;86;21772;-89
2021/03/18 09:47:46;;;;;;;4.22;1.40;;;;;;;7.70;53.50;99229.78;4030912;85;28866;-89
2021/03/18 09:54:00;;;;;;;20.65;7.87;;;;;;;6.30;52.75;99225.15;4041494;86;21511;-88
2021/03/18 10:00:01;;;;;;;13.65;5.87;;;;;;;5.86;52.60;99238.82;4045067;86;21193;-89
2021/03/18 10:06:11;;;;;;;26.57;8.78;;;;;;;6.99;55.25;99221.37;4044814;86;21234;-90
2021/03/18 10:18:35;;;;;;;5.58;2.85;;;;;;;5.69;53.11;99226.21;4603937;76;22394;-88
2021/03/18 10:24:37;;;;;;;13.88;4.92;;;;;;;5.08;53.43;99216.30;4540505;76;21141;-88
2021/03/18 10:30:50;;;;;;;6.37;3.60;;;;;;;6.00;52.98;99210.20;4549219;77;21610;-89
2021/03/18 10:36:52;;;;;;;12.23;3.25;;;;;;;7.64;50.57;99209.95;4544308;76;21172;-88
2021/03/18 10:49:40;;;;;;;2.92;1.62;;;;;;;8.51;48.57;99196.33;4477614;77;21783;-88
2021/03/18 10:55:50;;;;;;;26.12;6.62;;;;;;;7.92;46.08;99201.13;4475116;77;21218;-89
2021/03/18 11:02:04;;;;;;;8.80;3.10;;;;;;;6.98;47.45;99189.86;4398385;79;21204;-88
2021/03/18 11:08:07;;;;;;;5.30;2.67;;;;;;;6.39;46.86;99189.11;4460092;77;21201;-87
2021/03/18 11:14:22;;;;;;;6.60;2.10;;;;;;;5.50;47.85;99193.36;4542289;77;21138;-86
2021/03/18 11:20:24;;;;;;;7.12;2.40;;;;;;;5.09;48.38;99193.46;4553235;77;21121;-88
2021/03/18 11:26:48;;;;;;;9.58;2.55;;;;;;;5.05;49.06;99186.33;4529311;76;21208;-88
2021/03/18 11:39:35;;;;;;;5.33;2.40;;;;;;;6.19;46.78;99166.94;4552687;77;21170;-89
2021/03/18 11:45:37;;;;;;;10.03;5.20;;;;;;;8.31;46.97;99151.62;4532956;77;21171;-88
2021/03/18 11:51:39;;;;;;;29.77;7.28;;;;;;;8.46;43.62;99160.33;4520804;77;21149;-90
2021/03/18 11:57:47;;;;;;;5.47;1.95;;;;;;;6.91;43.50;99162.43;4526186;77;21457;-88
2021/03/18 12:03:51;;;;;;;9.63;5.03;;;;;;;6.00;45.23;99160.48;4524272;77;21135;-90
2021/03/18 12:09:53;;;;;;;8.58;3.50;;;;;;;6.15;45.19;99163.30;4507320;77;47814;-90
2021/03/18 12:15:54;;;;;;;5.83;2.92;;;;;;;6.16;46.37;99159.47;4368303;79;22022;-90
2021/03/18 12:21:56;;;;;;;5.67;3.25;;;;;;;5.75;45.98;99146.09;4320245;81;21682;-89
2021/03/18 12:28:04;;;;;;;5.00;2.20;;;;;;;5.57;46.19;99133.06;4239077;82;21154;-88
2021/03/18 12:34:06;;;;;;;9.90;2.47;;;;;;;6.09;46.53;99115.75;4257834;82;21200;-90
2021/03/18 12:40:09;;;;;;;14.60;5.60;;;;;;;6.69;45.05;99112.66;4187198;83;21197;-87
2021/03/18 12:46:11;;;;;;;7.47;3.77;;;;;;;6.77;42.05;99108.97;4174918;83;21676;-88
2021/03/18 12:52:12;;;;;;;12.78;4.80;;;;;;;7.06;43.48;99112.70;4191708;83;21327;-89
2021/03/18 12:58:16;;;;;;;15.20;5.03;;;;;;;6.94;42.33;99116.27;4192187;83;21193;-90
2021/03/18 13:04:24;;;;;;;7.20;3.60;;;;;;;6.06;42.75;99107.52;4182260;83;21335;-90
2021/03/18 13:10:27;;;;;;;23.18;8.13;;;;;;;5.40;43.36;99113.72;4214338;82;21197;-89
2021/03/18 13:16:28;;;;;;;10.93;4.97;;;;;;;5.25;44.02;99102.70;4289539;80;21175;-89
2021/03/18 13:22:30;;;;;;;10.68;5.92;;;;;;;5.60;44.09;99092.45;4335814;80;21134;-89
2021/03/18 13:28:32;;;;;;;14.40;6.28;;;;;;;5.77;44.70;99085.43;4326004;81;21467;-88
2021/03/18 13:34:34;;;;;;;34.48;9.08;;;;;;;5.33;43.42;99091.75;4398743;78;21161;-90
2021/03/18 13:47:27;;;;;;;11.50;4.97;;;;;;;4.45;44.13;99078.39;4322928;80;21176;-89
2021/03/18 13:59:47;;;;;;;17.02;6.65;;;;;;;4.53;44.05;99079.69;4582636;76;22995;-88
2021/03/18 14:06:00;;;;;;;27.77;10.25;;;;;;;4.56;44.29;99075.50;4481602;78;22159;-88
2021/03/18 14:12:03;;;;;;;9.23;4.92;;;;;;;4.90;44.45;99069.76;4415740;78;21781;-88
2021/03/18 14:18:05;;;;;;;33.10;12.43;;;;;;;4.83;44.57;99066.23;4435214;78;21439;-88
2021/03/18 14:24:07;;;;;;;10.48;6.10;;;;;;;4.60;44.53;99071.78;4474537;77;21173;-89
2021/03/18 14:30:11;;;;;;;10.50;5.67;;;;;;;4.48;45.07;99060.11;4432514;78;21181;-90
2021/03/18 14:36:25;;;;;;;10.60;5.30;;;;;;;4.94;45.24;99053.58;4443843;79;21201;-89
2021/03/18 14:42:28;;;;;;;21.68;7.42;;;;;;;5.18;44.80;99044.94;4450715;78;21157;-88
2021/03/18 14:48:30;;;;;;;10.70;5.42;;;;;;;4.87;44.35;99042.50;4442720;78;21146;-88
2021/03/18 14:54:31;;;;;;;12.70;6.72;;;;;;;4.41;44.89;99032.77;4442137;78;21380;-88
2021/03/18 15:00:33;;;;;;;7.80;5.35;;;;;;;4.13;45.23;99033.09;4179852;79;63008;-88
2021/03/18 15:06:35;;;;;;;10.90;6.55;;;;;;;3.96;45.48;99034.59;4033932;86;21371;-88
2021/03/18 15:12:51;;;;;;;11.73;6.90;;;;;;;3.84;45.60;99023.11;4024113;86;21206;-88
2021/03/18 15:18:52;;;;;;;9.80;6.05;;;;;;;3.85;45.84;99026.63;4003803;87;21208;-88
2021/03/18 15:24:55;;;;;;;10.88;5.85;;;;;;;3.99;45.81;99017.13;4026406;86;21254;-88
2021/03/18 15:30:57;;;;;;;7.97;4.90;;;;;;;4.12;46.02;99016.63;4017853;86;22041;-89
2021/03/18 15:36:59;;;;;;;12.50;4.50;;;;;;;4.08;45.23;99016.48;4020202;86;21218;-88
2021/03/18 15:43:00;;;;;;;8.05;4.87;;;;;;;3.92;45.25;99016.05;4022039;86;21202;-88
2021/03/18 15:49:05;;;;;;;19.12;5.65;;;;;;;3.73;45.31;99014.38;4021412;86;22155;-88
2021/03/18 15:55:09;;;;;;;36.80;9.98;;;;;;;3.62;44.97;99014.53;4031570;86;21924;-89
2021/03/18 16:01:10;;;;;;;17.73;6.92;;;;;;;3.59;44.80;99013.81;4036305;87;21201;-89
2021/03/18 16:07:12;;;;;;;12.80;5.45;;;;;;;3.60;45.00;99018.12;4042624;86;21205;-89
2021/03/18 16:13:14;;;;;;;48.52;14.80;;;;;;;3.56;45.00;99019.88;4037861;87;21756;-88
2021/03/18 16:19:18;;;;;;;46.60;16.15;;;;;;;3.36;45.31;99017.39;4039305;87;21733;-87
2021/03/18 16:25:21;;;;;;;18.73;7.70;;;;;;;3.15;45.52;99021.38;4034737;87;21236;-88
2021/03/18 16:31:50;;;;;;;12.88;5.70;;;;;;;2.95;45.89;99029.42;4037928;87;21210;-88
2021/03/18 16:37:52;;;;;;;18.42;7.58;;;;;;;2.80;45.87;99021.27;4039698;86;21169;-88
2021/03/18 16:44:00;;;;;;;55.78;18.45;;;;;;;2.66;46.04;99022.03;4001613;87;21350;-88
2021/03/18 16:50:27;;;;;;;10.10;4.70;;;;;;;2.59;46.44;99029.86;4004446;87;21196;-88
2021/03/18 16:56:51;;;;;;;16.05;7.22;;;;;;;2.49;46.75;99028.06;4053823;85;21260;-89
2021/03/18 17:02:59;;;;;;;51.73;12.45;;;;;;;2.47;47.16;99028.92;4073266;86;21216;-87
2021/03/18 17:09:07;;;;;;;28.95;8.68;;;;;;;2.31;47.09;99025.94;4059267;85;21391;-88
2021/03/18 17:21:36;;;;;;;57.93;13.98;;;;;;;1.92;47.55;99026.66;4073154;86;21202;-88
2021/03/18 17:27:39;;;;;;;37.38;11.22;;;;;;;1.68;47.57;99029.05;4072873;86;21361;-87
2021/03/18 17:33:47;;;;;;;40.65;12.85;;;;;;;1.44;47.86;99037.57;4072592;86;21187;-87
2021/03/18 17:39:48;;;;;;;18.65;8.60;;;;;;;1.21;48.78;99026.08;4074211;85;21206;-88
2021/03/18 17:45:55;;;;;;;53.98;16.50;;;;;;;1.21;48.78;99026.08;4077368;86;21246;-87
2021/03/18 17:52:19;;;;;;;30.50;11.28;;;;;;;1.09;48.86;99021.04;4154911;84;21223;-88
2021/03/18 17:58:21;;;;;;;16.85;8.98;;;;;;;0.99;48.90;99028.05;4150866;84;21527;-88
2021/03/18 18:04:40;;;;;;;24.52;8.75;;;;;;;0.88;49.35;99022.69;4140337;84;21182;-88
2021/03/18 18:10:59;;;;;;;27.47;12.80;;;;;;;0.77;49.58;99018.67;4138245;84;22057;-89
2021/03/18 18:17:24;;;;;;;49.13;14.57;;;;;;;0.67;50.03;99016.27;4096863;84;21188;-88
2021/03/18 18:23:29;;;;;;;47.83;16.15;;;;;;;0.52;50.40;99020.71;4137061;84;21335;-88
2021/03/18 18:29:30;;;;;;;43.90;16.60;;;;;;;0.43;50.84;99017.95;4133668;84;21193;-88
2021/03/18 18:36:04;;;;;;;36.70;14.73;;;;;;;0.39;51.38;99008.91;4137932;84;21224;-88
2021/03/18 18:42:06;;;;;;;72.20;27.55;;;;;;;0.21;51.62;99019.31;4134444;84;21331;-88
2021/03/18 18:48:09;;;;;;;47.97;16.00;;;;;;;-0.02;51.98;99015.81;4134958;84;21209;-88
2021/03/18 18:54:11;;;;;;;75.73;23.57;;;;;;;-0.22;52.57;99015.52;4039086;78;10000788;-88
2021/03/18 19:00:24;;;;;;;75.43;24.40;;;;;;;-0.50;53.07;99009.39;4144188;83;21520;-89
2021/03/18 19:06:47;;;;;;;71.63;23.33;;;;;;;-0.65;53.93;99012.42;4303100;80;24299;-89
2021/03/18 19:12:49;;;;;;;71.27;24.00;;;;;;;-0.86;54.02;99019.88;4256666;82;21215;-88
2021/03/18 19:18:51;;;;;;;69.60;25.33;;;;;;;-0.94;55.37;99021.34;4251911;82;21356;-89
2021/03/18 19:24:54;;;;;;;97.27;31.30;;;;;;;-1.18;54.99;99023.98;4264245;82;22443;-88
2021/03/18 19:30:57;;;;;;;116.00;39.93;;;;;;;-1.31;55.49;99021.53;4258757;82;22366;-88
2021/03/18 19:36:59;;;;;;;110.73;37.87;;;;;;;-1.32;55.27;99025.33;4248871;82;21672;-88
2021/03/18 19:43:02;;;;;;;89.87;32.13;;;;;;;-1.43;56.57;99015.86;4246474;82;21170;-88
2021/03/18 19:49:03;;;;;;;48.27;21.40;;;;;;;-1.72;56.52;99017.43;4249361;82;21692;-89
2021/03/18 19:55:07;;;;;;;75.53;29.07;;;;;;;-1.86;57.17;99027.33;4255496;82;21235;-89
2021/03/18 20:01:09;;;;;;;58.07;25.07;;;;;;;-1.90;57.03;99033.04;4246576;82;21232;-88
2021/03/18 20:07:15;;;;;;;63.83;27.73;;;;;;;-1.89;58.30;99031.94;4249964;82;21837;-89
2021/03/18 20:13:17;;;;;;;;;;;;;;;-1.91;57.97;99039.48;4248390;82;22076;-88
2021/03/18 20:19:19;;;;;;;107.77;42.13;;;;;;;-1.95;58.55;99036.33;4249782;82;20519;-90
2021/03/18 20:25:22;;;;;;;96.77;40.70;;;;;;;-1.93;59.07;99032.28;4258342;82;21982;-88
2021/03/18 20:31:24;;;;;;;116.57;48.13;;;;;;;-2.02;59.13;99041.29;4244362;82;21583;-88
2021/03/18 20:37:26;;;;;;;101.27;39.53;;;;;;;-2.07;59.35;99031.97;4254488;82;21207;-90
2021/03/18 20:43:27;;;;;;;108.93;43.90;;;;;;;-2.25;59.70;99028.21;4253958;82;21677;-89
2021/03/18 20:49:29;;;;;;;108.67;45.17;;;;;;;-2.39;60.09;99026.53;4256547;82;21219;-88
2021/03/18 20:55:34;;;;;;;103.30;41.47;;;;;;;-2.47;60.48;99021.82;4259142;82;21350;-86
2021/03/18 21:01:36;;;;;;;86.87;36.70;;;;;;;-2.61;60.19;99031.13;4253067;82;21209;-87
2021/03/18 21:14:11;;;;;;;146.17;57.67;;;;;;;-2.74;61.74;99022.45;4584997;76;22525;-83
2021/03/18 21:20:23;;;;;;;154.43;58.30;;;;;;;-2.81;61.38;99018.53;4520186;77;21191;-82
2021/03/18 21:26:31;;;;;;;137.53;53.63;;;;;;;-2.88;61.87;99021.56;4522741;77;21127;-82
2021/03/18 21:32:39;;;;;;;149.20;58.00;;;;;;;-2.86;62.19;99023.95;4519419;77;22084;-82
2021/03/18 21:38:49;;;;;;;160.13;61.77;;;;;;;-2.89;62.53;99019.17;4478222;77;21713;-82
2021/03/18 21:44:53;;;;;;;155.00;57.77;;;;;;;-2.82;62.60;99018.29;4482779;77;21137;-82
2021/03/18 21:50:54;;;;;;;188.77;65.90;;;;;;;-2.98;62.34;99014.20;4463183;77;21142;-82
2021/03/18 21:56:57;;;;;;;172.37;61.27;;;;;;;-3.22;62.91;99011.53;4450230;77;21225;-81
2021/03/18 22:02:58;;;;;;;135.13;51.47;;;;;;;-3.13;63.59;99011.70;4464162;77;21162;-83
2021/03/18 22:09:00;;;;;;;136.47;51.93;;;;;;;-3.10;63.91;99006.55;4466080;77;21186;-83
2021/03/18 22:15:04;;;;;;;157.50;62.37;;;;;;;-3.16;64.27;99005.59;4485169;77;21179;-83
2021/03/18 22:21:06;;;;;;;166.30;62.70;;;;;;;-3.13;64.04;99004.45;4474975;77;21178;-83
2021/03/18 22:27:08;;;;;;;138.30;54.20;;;;;;;-3.17;64.51;99005.31;4480234;77;21288;-83
2021/03/18 22:33:09;;;;;;;180.40;60.33;;;;;;;-3.14;65.04;99007.42;4476341;77;21105;-87
2021/03/18 22:39:11;;;;;;;132.60;54.30;;;;;;;-3.00;65.16;99002.44;4489813;77;21363;-83
2021/03/18 22:45:14;;;;;;;145.80;56.57;;;;;;;-2.98;65.36;99005.63;4469495;77;22293;-83
2021/03/18 22:51:15;;;;;;;149.97;56.60;;;;;;;-2.92;65.32;99003.67;4461212;77;21629;-83
2021/03/18 22:57:17;;;;;;;150.87;55.90;;;;;;;-2.93;65.90;99000.75;4458967;78;21558;-82
2021/03/18 23:03:18;;;;;;;139.13;55.33;;;;;;;-2.76;65.34;98987.66;4457507;77;21145;-84
2021/03/18 23:09:21;;;;;;;135.57;53.53;;;;;;;-2.71;66.41;98991.62;4471361;78;21496;-83
2021/03/18 23:15:22;;;;;;;146.57;55.67;;;;;;;-2.56;66.85;98996.23;4461526;78;21600;-84
2021/03/18 23:21:24;;;;;;;148.47;57.47;;;;;;;-2.51;66.95;98994.02;4477123;78;21185;-84
2021/03/18 23:27:25;;;;;;;157.60;56.60;;;;;;;-2.59;66.35;98997.34;4485513;77;21324;-83
2021/03/18 23:33:28;;;;;;;130.53;53.33;;;;;;;-2.74;66.54;98988.18;4471977;77;21271;-83
2021/03/18 23:39:29;;;;;;;138.73;53.00;;;;;;;-2.55;67.36;98998.38;4467551;77;21293;-83
2021/03/18 23:45:31;;;;;;;151.80;59.83;;;;;;;-2.30;67.27;98998.78;4479249;77;21305;-84
2021/03/18 23:51:33;;;;;;;150.60;55.07;;;;;;;-2.31;67.04;98997.20;4484598;77;21162;-83
2021/03/18 23:57:34;;;;;;;150.77;54.33;;;;;;;-2.32;67.31;99000.95;4459195;77;21122;-82
